Time;durP1;ratioP1;P1;durP2;ratioP2;P2;SDS_P1;SDS_P2;PMS_P1;PMS_P2;Temp;Humidity;BMP_temperature;BMP_pressure;BME280_temperature;BME280_humidity;BME280_pressure;Samples;Min_cycle;Max_cycle;Signal;HPM_P1;HPM_P2
2022/03/29 00:02:10;;;;;;;41.65;26.52;;;;;;;9.20;79.76;99823.83;2821281;82;21064;-58
2022/03/29 00:06:13;;;;;;;46.13;28.45;;;;;;;9.32;78.71;99815.32;2803023;81;21043;-58
2022/03/29 00:10:14;;;;;;;41.25;27.58;;;;;;;9.27;77.70;99818.85;2829869;81;21061;-59
2022/03/29 00:14:16;;;;;;;41.83;27.58;;;;;;;9.24;76.87;99820.45;2844752;82;20994;-58
2022/03/29 00:18:18;;;;;;;39.80;26.10;;;;;;;9.07;76.43;99823.19;2763678;85;21060;-59
2022/03/29 00:22:26;;;;;;;39.15;25.68;;;;;;;8.97;76.81;99827.92;2828672;82;20984;-57
2022/03/29 00:26:27;;;;;;;42.15;28.02;;;;;;;8.96;77.61;99826.23;2865719;79;21003;-58
2022/03/29 00:30:29;;;;;;;43.13;26.25;;;;;;;8.99;78.13;99824.65;2833139;82;21046;-58
2022/03/29 00:34:34;;;;;;;38.25;27.00;;;;;;;9.05;78.85;99815.84;2824385;82;21047;-59
2022/03/29 00:38:35;;;;;;;41.30;26.65;;;;;;;8.81;83.08;99831.47;2834375;82;21136;-57
2022/03/29 00:42:38;;;;;;;40.35;28.50;;;;;;;8.74;84.10;99822.34;2858019;81;21086;-58
2022/03/29 00:46:42;;;;;;;43.30;27.20;;;;;;;8.73;84.48;99811.37;2854865;81;21006;-57
2022/03/29 00:50:45;;;;;;;35.60;25.52;;;;;;;8.69;85.25;99832.84;2848875;81;20998;-59
2022/03/29 00:54:46;;;;;;;37.60;23.25;;;;;;;8.75;86.41;99832.84;2848945;82;21010;-57
2022/03/29 00:58:49;;;;;;;34.05;24.80;;;;;;;8.93;86.71;99844.20;2883849;82;21088;-58
2022/03/29 01:02:52;;;;;;;31.50;22.58;;;;;;;9.24;86.09;99849.64;2822217;82;21020;-56
2022/03/29 01:06:59;;;;;;;25.50;19.52;;;;;;;9.53;84.94;99841.87;2838129;81;20988;-62
2022/03/29 01:11:00;;;;;;;;;;;;;;;9.76;83.53;99837.74;2856268;80;21031;-58
2022/03/29 01:15:09;;;;;;;24.50;17.62;;;;;;;9.90;82.47;99825.09;2855370;81;20141;-58
2022/03/29 01:19:13;;;;;;;32.25;20.43;;;;;;;9.84;81.77;99815.84;2833067;82;20993;-60
2022/03/29 01:23:15;;;;;;;27.42;18.85;;;;;;;9.77;81.77;99811.53;2815364;83;21028;-59
2022/03/29 01:27:19;;;;;;;24.77;15.88;;;;;;;9.81;81.45;99794.86;2867348;80;20953;-58
2022/03/29 01:31:34;;;;;;;25.02;16.82;;;;;;;9.68;80.95;99800.39;2828659;82;21032;-58
2022/03/29 01:35:36;;;;;;;24.07;16.97;;;;;;;9.78;80.01;99803.92;2860872;80;21022;-58
2022/03/29 01:39:38;;;;;;;21.65;14.20;;;;;;;9.77;79.01;99792.12;2900372;80;21029;-58
2022/03/29 01:43:39;;;;;;;24.63;18.12;;;;;;;9.96;78.39;99792.67;2820435;82;20997;-60
2022/03/29 01:47:41;;;;;;;22.52;16.80;;;;;;;9.97;78.38;99797.02;2850321;82;21055;-60
2022/03/29 01:51:44;;;;;;;21.00;15.20;;;;;;;9.93;78.00;99790.28;2859713;81;21055;-60
2022/03/29 01:55:47;;;;;;;23.55;15.03;;;;;;;9.88;77.95;99793.34;2840223;82;21044;-58
2022/03/29 02:04:09;;;;;;;20.68;15.50;;;;;;;9.88;77.95;99775.24;2849421;82;20988;-58
2022/03/29 02:08:11;;;;;;;19.37;14.85;;;;;;;9.93;77.72;99770.36;2860839;82;21058;-60
2022/03/29 02:12:13;;;;;;;19.17;13.80;;;;;;;9.96;77.38;99768.76;2859156;80;21062;-61
2022/03/29 02:16:14;;;;;;;21.82;14.60;;;;;;;9.93;77.38;99768.56;2858351;81;21194;-58
2022/03/29 02:20:16;;;;;;;22.37;15.55;;;;;;;9.94;77.33;99770.71;2742036;83;21050;-60
2022/03/29 02:24:18;;;;;;;22.27;15.78;;;;;;;9.86;77.33;99766.06;2845148;82;21045;-60
2022/03/29 02:28:20;;;;;;;23.73;13.90;;;;;;;9.82;77.33;99751.38;2863389;81;21085;-57
2022/03/29 02:32:21;;;;;;;19.77;14.65;;;;;;;9.91;77.11;99754.55;2850548;82;21073;-58
2022/03/29 02:36:24;;;;;;;28.47;14.53;;;;;;;9.55;78.62;99752.81;2862230;81;21015;-59
2022/03/29 02:40:26;;;;;;;21.87;14.75;;;;;;;9.25;79.78;99756.63;2854145;81;21052;-58
2022/03/29 02:44:28;;;;;;;24.30;14.07;;;;;;;9.00;80.34;99744.59;2849959;81;21126;-58
2022/03/29 02:48:30;;;;;;;20.40;13.13;;;;;;;8.78;80.47;99746.86;2850193;82;21003;-59
2022/03/29 02:52:31;;;;;;;22.40;14.00;;;;;;;8.64;79.79;99739.55;2826849;81;21087;-58
2022/03/29 02:56:32;;;;;;;24.52;15.32;;;;;;;8.59;79.11;99733.80;2846280;81;21091;-60
2022/03/29 03:00:34;;;;;;;19.75;13.95;;;;;;;8.51;78.65;99730.95;2796044;82;21051;-58
2022/03/29 03:04:36;;;;;;;22.58;14.90;;;;;;;8.48;78.54;99728.53;2837235;80;20973;-56
2022/03/29 03:08:37;;;;;;;22.73;13.88;;;;;;;8.40;78.06;99722.52;2824670;82;20946;-57
2022/03/29 03:12:41;;;;;;;18.92;13.68;;;;;;;8.32;77.75;99723.15;2841818;81;21063;-57
2022/03/29 03:16:43;;;;;;;19.37;13.30;;;;;;;8.24;77.60;99724.23;2849719;82;21024;-58
2022/03/29 03:20:45;;;;;;;17.77;11.33;;;;;;;8.13;77.42;99727.29;2839496;81;21056;-63
2022/03/29 03:24:46;;;;;;;22.82;11.78;;;;;;;7.66;79.20;99733.22;2856193;82;21001;-60
2022/03/29 03:28:49;;;;;;;20.35;13.58;;;;;;;7.32;80.39;99727.44;2838388;82;21065;-59
2022/03/29 03:32:53;;;;;;;24.82;12.50;;;;;;;7.04;81.66;99729.57;2857354;82;20966;-59
2022/03/29 03:37:04;;;;;;;22.58;14.70;;;;;;;6.62;83.84;99735.31;2853155;82;21033;-60
2022/03/29 03:41:21;;;;;;;19.90;13.83;;;;;;;6.46;86.44;99734.75;2870549;81;20997;-60
2022/03/29 03:45:22;;;;;;;26.37;16.10;;;;;;;6.47;87.24;99732.02;2857006;80;21020;-60
2022/03/29 03:49:25;;;;;;;20.12;14.40;;;;;;;6.62;86.40;99741.92;2843221;82;21004;-59
2022/03/29 03:53:26;;;;;;;21.35;14.25;;;;;;;6.78;85.60;99739.00;2850640;82;21002;-61
2022/03/29 03:57:33;;;;;;;27.50;14.03;;;;;;;6.92;84.96;99734.45;2855561;82;20982;-60
2022/03/29 04:01:35;;;;;;;22.70;12.43;;;;;;;7.06;85.53;99733.40;2816296;82;21014;-61
2022/03/29 04:05:37;;;;;;;21.05;13.40;;;;;;;7.18;86.02;99732.48;2862250;81;21062;-59
2022/03/29 04:09:39;;;;;;;17.10;11.78;;;;;;;7.18;86.55;99732.97;2831005;81;20977;-60
2022/03/29 04:13:41;;;;;;;24.20;13.58;;;;;;;7.14;87.22;99728.39;2868117;81;21076;-60
2022/03/29 04:17:43;;;;;;;31.52;16.20;;;;;;;7.11;87.51;99733.92;2845083;82;20988;-59
2022/03/29 04:21:46;;;;;;;25.25;15.23;;;;;;;7.12;87.50;99724.52;2812174;81;21005;-59
2022/03/29 04:25:54;;;;;;;22.67;13.50;;;;;;;7.26;86.30;99724.78;2843945;81;21033;-59
2022/03/29 04:29:55;;;;;;;21.10;14.05;;;;;;;7.35;85.37;99732.98;2870062;81;21099;-60
2022/03/29 04:33:58;;;;;;;20.35;13.13;;;;;;;7.46;84.33;99734.30;2832281;82;21031;-59
2022/03/29 04:38:00;;;;;;;27.90;13.78;;;;;;;7.51;83.39;99729.52;2790164;82;21058;-59
2022/03/29 04:42:08;;;;;;;20.60;14.25;;;;;;;7.52;82.61;99728.55;2851427;81;20960;-60
2022/03/29 04:46:11;;;;;;;21.95;13.78;;;;;;;7.56;82.09;99730.45;2846476;81;21087;-60
2022/03/29 04:50:15;;;;;;;22.60;16.12;;;;;;;7.61;81.17;99729.64;2874972;82;20978;-60
2022/03/29 04:54:17;;;;;;;26.12;15.70;;;;;;;7.69;82.30;99722.42;2889935;80;20999;-60
2022/03/29 04:58:19;;;;;;;25.85;14.35;;;;;;;7.68;82.87;99722.06;2883262;80;20990;-61
2022/03/29 05:02:20;;;;;;;30.05;16.27;;;;;;;7.65;83.23;99724.45;2866895;80;20973;-59
2022/03/29 05:06:22;;;;;;;24.37;13.00;;;;;;;7.69;84.13;99727.22;2845259;80;21021;-60
2022/03/29 05:10:30;;;;;;;29.70;17.82;;;;;;;7.84;84.37;99722.50;2851723;80;21015;-61
2022/03/29 05:14:34;;;;;;;22.25;13.85;;;;;;;7.89;84.97;99723.97;2838756;80;21035;-61
2022/03/29 05:19:17;;;;;;;21.27;14.03;;;;;;;8.04;84.71;99720.06;2876327;81;20965;-59
2022/03/29 05:23:20;;;;;;;25.60;16.52;;;;;;;8.14;84.78;99723.67;2891051;81;21080;-60
2022/03/29 05:27:21;;;;;;;24.47;14.33;;;;;;;8.34;84.47;99731.81;2854598;82;21017;-60
2022/03/29 05:31:23;;;;;;;30.65;16.37;;;;;;;8.39;84.98;99732.27;2866320;81;21032;-62
2022/03/29 05:35:29;;;;;;;25.70;15.93;;;;;;;8.44;85.17;99738.03;2845074;81;20989;-59
2022/03/29 05:39:29;;;;;;;28.87;18.77;;;;;;;8.54;85.13;99747.42;2848436;82;21077;-59
2022/03/29 05:43:31;;;;;;;37.95;20.37;;;;;;;8.50;85.09;99743.84;2866301;78;21063;-59
2022/03/29 05:51:52;;;;;;;36.93;21.12;;;;;;;8.40;85.14;99753.83;2862853;82;21023;-59
2022/03/29 05:55:54;;;;;;;35.63;21.30;;;;;;;8.34;85.18;99763.61;2782100;84;21518;-59
2022/03/29 06:00:17;;;;;;;54.95;23.70;;;;;;;8.41;85.07;99759.98;2754158;84;21023;-60
2022/03/29 06:04:22;;;;;;;40.33;24.12;;;;;;;8.40;84.79;99760.95;2771002;85;21128;-59
2022/03/29 06:08:21;;;;;;;37.67;23.70;;;;;;;8.50;84.97;99761.08;2703410;86;21146;-59
2022/03/29 06:12:24;;;;;;;35.43;21.93;;;;;;;8.47;84.74;99762.63;2764695;84;21020;-59
2022/03/29 06:16:29;;;;;;;32.98;22.35;;;;;;;8.42;84.06;99773.09;2750364;84;21156;-61
2022/03/29 06:20:39;;;;;;;35.48;23.77;;;;;;;8.38;84.43;99761.06;2865127;82;21017;-59
2022/03/29 06:24:50;;;;;;;53.80;25.97;;;;;;;8.39;84.54;99769.38;2851822;82;20996;-61
2022/03/29 06:28:51;;;;;;;37.83;24.85;;;;;;;8.47;84.53;99791.78;2863649;82;20985;-60
2022/03/29 06:42:08;;;;;;;42.15;28.47;;;;;;;8.51;83.98;99781.31;2807309;82;21173;-59
2022/03/29 06:46:10;;;;;;;38.42;25.05;;;;;;;8.62;84.18;99783.09;2755954;84;21021;-59
2022/03/29 06:50:12;;;;;;;36.75;25.27;;;;;;;8.60;83.12;99771.27;2777955;82;21024;-61
2022/03/29 06:54:19;;;;;;;38.88;24.70;;;;;;;8.63;82.61;99782.95;2795759;84;20991;-59
2022/03/29 06:58:21;;;;;;;39.00;26.82;;;;;;;8.58;82.49;99771.88;2827590;81;21980;-61
2022/03/29 07:02:24;;;;;;;41.00;25.75;;;;;;;8.59;83.02;99774.89;2833759;82;21103;-60
2022/03/29 07:06:31;;;;;;;32.95;20.82;;;;;;;8.50;83.13;99782.28;2866462;81;21008;-60
2022/03/29 07:14:52;;;;;;;44.25;26.00;;;;;;;8.36;81.38;99782.88;2780157;83;20085;-60
2022/03/29 07:18:54;;;;;;;44.85;27.58;;;;;;;8.18;81.46;99777.27;2822899;83;21019;-58
2022/03/29 07:22:56;;;;;;;50.03;32.28;;;;;;;8.28;81.37;99783.99;2839257;82;21049;-58
2022/03/29 07:26:58;;;;;;;51.35;30.75;;;;;;;8.26;80.80;99781.45;2863845;82;21000;-59
2022/03/29 07:31:00;;;;;;;60.05;32.33;;;;;;;8.31;79.97;99790.37;2861990;82;20959;-59
2022/03/29 07:35:01;;;;;;;56.08;35.13;;;;;;;8.32;81.13;99781.45;2829094;81;21040;-62
2022/03/29 07:39:03;;;;;;;54.35;35.63;;;;;;;8.29;80.38;99776.41;2897425;81;21013;-59
2022/03/29 07:43:08;;;;;;;49.83;29.12;;;;;;;8.27;80.60;99787.61;2839894;81;21007;-60
2022/03/29 07:47:10;;;;;;;59.88;33.20;;;;;;;8.25;80.46;99778.45;2885995;81;21023;-60
2022/03/29 07:51:17;;;;;;;57.45;34.90;;;;;;;8.36;81.03;99782.88;2834292;82;21051;-59
2022/03/29 07:55:19;;;;;;;43.50;27.52;;;;;;;8.60;80.49;99779.22;2781220;83;21534;-60
2022/03/29 07:59:20;;;;;;;42.23;29.18;;;;;;;8.64;79.81;99784.62;2836181;83;21009;-60
2022/03/29 08:03:23;;;;;;;38.02;26.25;;;;;;;8.70;80.30;99774.86;2832511;82;20988;-59
2022/03/29 08:07:32;;;;;;;40.28;26.20;;;;;;;8.75;78.99;99774.96;2830705;82;21068;-58
2022/03/29 08:11:45;;;;;;;36.05;22.67;;;;;;;8.74;79.42;99775.94;2804759;83;21016;-60
2022/03/29 08:16:05;;;;;;;40.23;25.92;;;;;;;8.73;80.32;99774.25;2753189;83;21077;-59
2022/03/29 08:20:08;;;;;;;27.60;18.07;;;;;;;8.82;79.29;99777.45;2822544;83;21857;-58
2022/03/29 08:24:09;;;;;;;31.42;21.27;;;;;;;8.73;77.44;99792.81;2784460;83;21063;-62
2022/03/29 08:28:14;;;;;;;31.97;21.35;;;;;;;8.72;77.40;99768.09;2798247;82;21010;-59
2022/03/29 08:32:16;;;;;;;39.38;25.62;;;;;;;8.68;77.61;99778.13;2787416;83;21091;-59
2022/03/29 08:40:45;;;;;;;34.05;21.80;;;;;;;8.79;76.59;99772.41;2766709;82;21140;-59
2022/03/29 08:44:46;;;;;;;36.48;22.37;;;;;;;8.71;77.04;99779.20;2724849;86;21098;-59
2022/03/29 08:48:50;;;;;;;34.92;22.62;;;;;;;8.75;77.50;99771.84;2754114;84;20977;-59
2022/03/29 08:52:53;;;;;;;30.80;20.90;;;;;;;8.83;76.84;99771.18;2759206;83;21016;-60
2022/03/29 08:56:55;;;;;;;30.15;17.57;;;;;;;8.78;76.96;99770.73;2772491;85;21010;-59
2022/03/29 09:00:56;;;;;;;42.38;24.72;;;;;;;8.74;77.02;99768.80;2787687;84;21063;-61
2022/03/29 09:05:13;;;;;;;31.37;23.10;;;;;;;8.92;77.37;99773.08;2755575;84;21013;-61
2022/03/29 09:09:35;;;;;;;31.05;20.32;;;;;;;8.82;77.40;99773.01;2750135;85;20999;-59
2022/03/29 09:13:36;;;;;;;56.73;24.60;;;;;;;8.86;77.17;99757.69;2777702;83;21580;-59
2022/03/29 09:17:45;;;;;;;37.75;21.87;;;;;;;8.92;77.09;99761.15;2795348;82;21067;-61
2022/03/29 09:21:47;;;;;;;37.90;23.35;;;;;;;9.08;76.72;99756.72;2847473;81;21141;-60
2022/03/29 09:25:48;;;;;;;41.18;25.08;;;;;;;9.07;75.16;99760.84;2844771;81;21106;-58
2022/03/29 09:30:08;;;;;;;32.90;23.15;;;;;;;9.03;76.24;99746.98;2777834;84;21021;-61
2022/03/29 09:34:21;;;;;;;35.95;22.82;;;;;;;9.00;77.19;99749.40;2830349;82;21005;-58
2022/03/29 09:38:26;;;;;;;39.67;23.98;;;;;;;9.17;77.58;99739.17;2827398;82;21024;-58
2022/03/29 09:42:28;;;;;;;;;;;;;;;9.20;75.36;99733.60;2861855;82;21040;-59
2022/03/29 09:46:31;;;;;;;36.13;22.35;;;;;;;9.36;76.08;99734.48;2865622;82;20091;-58
2022/03/29 09:50:34;;;;;;;40.88;25.82;;;;;;;9.55;74.44;99724.43;2850912;82;20981;-59
2022/03/29 09:54:37;;;;;;;27.45;20.27;;;;;;;9.48;72.95;99731.25;2847866;80;20964;-60
2022/03/29 09:58:39;;;;;;;36.28;25.75;;;;;;;9.65;73.59;99731.61;2880433;79;21050;-60
2022/03/29 10:06:58;;;;;;;42.98;25.62;;;;;;;9.81;73.70;99711.19;2859728;80;21054;-61
2022/03/29 10:11:01;;;;;;;49.63;27.77;;;;;;;9.68;73.13;99725.53;2892554;80;21043;-60
2022/03/29 10:15:04;;;;;;;35.80;23.70;;;;;;;9.68;72.71;99712.75;2892441;79;20976;-61
2022/03/29 10:19:07;;;;;;;32.38;22.48;;;;;;;9.50;73.52;99713.38;2871589;82;20973;-58
2022/03/29 10:23:14;;;;;;;40.78;24.60;;;;;;;9.49;74.08;99708.19;2810580;82;21061;-59
2022/03/29 10:27:17;;;;;;;;;;;;;;;9.53;74.58;99707.80;2846630;83;20964;-59
2022/03/29 10:31:31;;;;;;;37.35;25.35;;;;;;;9.45;72.98;99710.29;2840606;81;20095;-60
2022/03/29 10:35:33;;;;;;;32.78;23.47;;;;;;;9.54;73.79;99705.48;2904706;79;20983;-61
2022/03/29 10:39:55;;;;;;;36.77;25.37;;;;;;;9.50;73.43;99697.45;2876905;80;21051;-60
2022/03/29 10:44:20;;;;;;;;;;;;;;;;;;;;;
2022/03/29 10:48:24;;;;;;;35.63;23.47;;;;;;;9.48;73.04;99682.61;2687297;86;21052;-59
2022/03/29 10:53:03;;;;;;;41.45;27.32;;;;;;;9.48;72.57;99687.92;2709515;84;21023;-60
2022/03/29 10:57:10;;;;;;;35.52;21.65;;;;;;;9.56;72.61;99693.42;2694156;87;21101;-62
2022/03/29 11:01:15;;;;;;;38.88;24.80;;;;;;;9.55;73.98;99670.00;2747822;84;21014;-58
2022/03/29 11:06:06;;;;;;;49.88;25.35;;;;;;;9.66;73.40;99682.33;2738046;85;20962;-59
2022/03/29 11:10:18;;;;;;;38.50;25.50;;;;;;;9.69;73.24;99673.27;2770812;84;21005;-59
2022/03/29 11:14:35;;;;;;;34.65;24.57;;;;;;;9.79;73.56;99671.97;2711473;86;21096;-58
2022/03/29 11:18:38;;;;;;;46.05;30.68;;;;;;;9.59;73.37;99667.92;2748261;84;21029;-60
2022/03/29 11:22:47;;;;;;;54.38;34.70;;;;;;;9.80;73.33;99673.14;2783795;82;20987;-60
2022/03/29 11:31:37;;;;;;;43.17;25.65;;;;;;;9.94;73.71;99645.84;2857772;79;21033;-60
2022/03/29 11:35:40;;;;;;;41.33;29.20;;;;;;;10.10;72.39;99651.46;2881447;80;21004;-60
2022/03/29 11:39:57;;;;;;;47.55;30.10;;;;;;;10.01;72.18;99638.98;2885376;81;21039;-59
2022/03/29 11:44:20;;;;;;;45.58;30.32;;;;;;;9.86;72.29;99647.38;2848708;82;20996;-59
2022/03/29 11:48:30;;;;;;;50.88;32.67;;;;;;;9.74;73.24;99641.00;2853608;81;21032;-60
2022/03/29 11:52:36;;;;;;;51.30;29.90;;;;;;;9.69;72.51;99632.10;2879436;80;20989;-60
2022/03/29 11:56:38;;;;;;;47.40;29.82;;;;;;;9.82;73.37;99624.70;2866870;80;21051;-58
2022/03/29 12:00:39;;;;;;;61.98;38.78;;;;;;;9.77;71.73;99629.59;2870536;82;20993;-58
2022/03/29 12:04:42;;;;;;;198.85;58.00;;;;;;;9.91;73.01;99622.22;2885593;80;21000;-59
2022/03/29 12:08:52;;;;;;;55.73;37.15;;;;;;;9.99;72.82;99613.05;2826436;81;21055;-59
2022/03/29 12:12:53;;;;;;;55.10;38.63;;;;;;;10.04;72.50;99611.31;2878422;82;21084;-59
2022/03/29 12:17:04;;;;;;;54.30;38.58;;;;;;;10.08;72.49;99593.63;2871244;81;21079;-60
2022/03/29 12:21:16;;;;;;;62.70;39.60;;;;;;;10.13;71.27;99587.41;2865645;82;21020;-61
2022/03/29 12:25:18;;;;;;;56.25;35.00;;;;;;;10.02;72.33;99578.73;2872724;80;21009;-61
2022/03/29 12:29:25;;;;;;;53.15;35.68;;;;;;;10.01;71.27;99592.49;2810057;83;20971;-60
2022/03/29 12:33:26;;;;;;;60.20;39.83;;;;;;;10.10;70.81;99578.38;2808510;82;20979;-59
2022/03/29 12:41:55;;;;;;;44.85;30.43;;;;;;;10.39;70.79;99572.19;2775456;84;21027;-62
2022/03/29 12:45:56;;;;;;;54.93;36.10;;;;;;;10.60;67.97;99552.59;2779947;82;21072;-59
2022/03/29 12:49:59;;;;;;;48.87;35.15;;;;;;;10.70;69.05;99559.20;2763221;83;21020;-59
2022/03/29 12:54:05;;;;;;;53.65;37.50;;;;;;;10.74;68.43;99540.67;2741987;85;21008;-59
2022/03/29 12:58:07;;;;;;;54.27;37.27;;;;;;;10.67;69.11;99536.42;2734730;84;21028;-60
2022/03/29 13:02:19;;;;;;;53.80;31.12;;;;;;;10.56;68.45;99528.59;2731876;84;20981;-59
2022/03/29 13:06:21;;;;;;;37.48;26.20;;;;;;;10.46;66.90;99517.17;2772763;84;21012;-58
2022/03/29 13:10:41;;;;;;;59.15;30.80;;;;;;;10.40;66.94;99503.92;2736472;85;21036;-61
2022/03/29 13:14:54;;;;;;;37.98;26.20;;;;;;;10.56;66.09;99516.16;2795746;83;21049;-61
2022/03/29 13:18:56;;;;;;;43.78;28.47;;;;;;;10.63;66.35;99519.08;2794598;83;21048;-60
2022/03/29 13:22:57;;;;;;;49.70;32.90;;;;;;;10.50;66.59;99512.72;2789883;84;21063;-58
2022/03/29 13:27:00;;;;;;;47.62;31.70;;;;;;;10.31;67.48;99493.66;2829005;82;21053;-68
2022/03/29 13:31:04;;;;;;;50.10;30.90;;;;;;;10.61;67.23;99493.59;2866404;81;20996;-67
2022/03/29 13:35:08;;;;;;;57.50;31.45;;;;;;;10.63;65.91;99495.14;2845065;82;20992;-67
2022/03/29 13:39:12;;;;;;;41.65;28.90;;;;;;;10.56;65.71;99490.04;2859077;82;21047;-68
2022/03/29 13:43:26;;;;;;;57.10;29.18;;;;;;;10.61;66.28;99492.27;2862291;81;21043;-67
2022/03/29 13:47:58;;;;;;;43.52;27.95;;;;;;;10.69;66.19;99489.70;2876101;81;20992;-67
2022/03/29 13:52:04;;;;;;;44.73;28.12;;;;;;;10.66;66.72;99488.67;2846968;81;21052;-68
2022/03/29 13:56:06;;;;;;;;;;;;;;;10.51;66.22;99465.71;2874213;81;21119;-67
2022/03/29 14:00:08;;;;;;;44.83;28.70;;;;;;;10.54;66.51;99465.42;2868993;79;20068;-68
2022/03/29 14:04:10;;;;;;;42.78;29.70;;;;;;;10.45;66.06;99476.94;2840601;82;21027;-67
2022/03/29 14:08:13;;;;;;;46.90;28.10;;;;;;;10.51;66.77;99461.22;2860210;82;20988;-68
2022/03/29 14:12:14;;;;;;;46.42;27.73;;;;;;;10.40;66.34;99464.89;2869298;82;20965;-67
2022/03/29 14:43:06;;;;;;;33.10;24.12;;;;;;;10.61;65.70;99431.95;2836323;81;21081;-68
2022/03/29 14:47:08;;;;;;;37.60;26.20;;;;;;;10.72;65.72;99438.91;2864721;81;21013;-66
2022/03/29 14:51:10;;;;;;;33.55;22.93;;;;;;;10.66;65.46;99425.70;2881242;80;20990;-67
2022/03/29 14:55:14;;;;;;;34.92;24.65;;;;;;;10.78;64.94;99424.15;2859059;82;21037;-67
2022/03/29 14:59:16;;;;;;;38.23;23.67;;;;;;;10.74;65.04;99418.78;2854745;81;21049;-67
2022/03/29 15:03:17;;;;;;;31.17;22.75;;;;;;;10.73;64.56;99425.09;2864190;81;21006;-67
2022/03/29 15:07:30;;;;;;;34.67;24.18;;;;;;;10.82;65.62;99418.90;2838374;81;21006;-68
2022/03/29 15:11:32;;;;;;;29.12;19.25;;;;;;;10.89;65.07;99417.30;2866599;81;20994;-67
2022/03/29 15:15:34;;;;;;;31.52;19.77;;;;;;;10.84;64.49;99416.41;2844184;81;21045;-68
2022/03/29 15:19:36;;;;;;;32.88;23.35;;;;;;;10.58;64.58;99406.96;2853021;80;21015;-68
2022/03/29 15:23:38;;;;;;;43.78;22.10;;;;;;;10.64;65.11;99402.88;2829051;81;20997;-67
2022/03/29 15:27:47;;;;;;;33.70;21.27;;;;;;;10.75;66.73;99409.82;2820920;81;21018;-68
2022/03/29 15:32:07;;;;;;;40.10;23.87;;;;;;;10.75;66.86;99403.17;2876532;80;21504;-69
2022/03/29 15:36:08;;;;;;;43.17;23.20;;;;;;;10.78;66.45;99393.55;2848102;81;21028;-67
2022/03/29 15:40:11;;;;;;;36.45;26.40;;;;;;;10.65;64.63;99402.74;2900289;80;21040;-68
2022/03/29 15:44:12;;;;;;;35.60;22.48;;;;;;;10.55;65.24;99399.28;2897744;80;20944;-69
2022/03/29 15:48:13;;;;;;;39.35;24.00;;;;;;;10.41;66.01;99392.13;2914566;80;20958;-67
2022/03/29 15:56:51;;;;;;;40.78;26.02;;;;;;;10.33;65.90;99388.02;2742011;84;21138;-82
2022/03/29 16:00:52;;;;;;;36.77;23.75;;;;;;;10.32;66.36;99382.83;2781167;83;21015;-83
2022/03/29 16:04:54;;;;;;;38.08;25.50;;;;;;;10.24;66.39;99384.92;2770550;83;21070;-81
2022/03/29 16:08:55;;;;;;;41.45;26.93;;;;;;;10.28;66.75;99387.62;2708345;86;21034;-81
2022/03/29 16:12:57;;;;;;;28.57;20.23;;;;;;;10.31;68.18;99381.16;2680981;85;21092;-80
2022/03/29 16:34:37;;;;;;;42.15;28.32;;;;;;;10.16;68.76;99381.66;2789395;81;21083;-79
2022/03/29 16:38:39;;;;;;;42.23;28.70;;;;;;;10.05;68.76;99382.67;2779527;82;21044;-81
2022/03/29 16:42:40;;;;;;;47.10;26.77;;;;;;;9.96;68.72;99376.87;2830315;81;21023;-80
2022/03/29 16:46:42;;;;;;;44.77;29.72;;;;;;;9.90;68.83;99376.96;2842285;81;20982;-81
2022/03/29 16:50:43;;;;;;;36.63;25.52;;;;;;;9.77;69.34;99381.26;2827317;81;21041;-80
2022/03/29 16:54:45;;;;;;;34.78;24.00;;;;;;;9.66;69.69;99385.42;2815411;82;21552;-80
2022/03/29 16:58:47;;;;;;;36.08;26.75;;;;;;;9.57;69.71;99374.66;2817131;81;21016;-79
2022/03/29 17:02:48;;;;;;;35.40;25.35;;;;;;;9.53;69.54;99373.27;2786089;82;21662;-78
2022/03/29 17:06:49;;;;;;;31.33;23.12;;;;;;;9.48;69.42;99371.53;2806708;81;21028;-80
2022/03/29 17:10:51;;;;;;;34.55;23.70;;;;;;;9.33;69.67;99362.32;2755807;83;21020;-80
2022/03/29 17:14:52;;;;;;;33.28;23.70;;;;;;;9.14;70.33;99362.67;2792534;83;21013;-80
2022/03/29 17:18:56;;;;;;;33.08;22.60;;;;;;;8.93;71.05;99357.00;2773911;83;21022;-81
2022/03/29 17:22:57;;;;;;;34.92;24.65;;;;;;;8.77;71.39;99359.34;2774750;83;21530;-81
2022/03/29 17:26:59;;;;;;;31.70;23.50;;;;;;;8.65;71.65;99361.28;2775684;83;21035;-80
2022/03/29 17:31:01;;;;;;;25.65;20.82;;;;;;;8.50;71.79;99364.30;2804353;82;21035;-80
2022/03/29 17:35:03;;;;;;;35.05;21.80;;;;;;;8.40;71.80;99376.67;2811377;81;21009;-81
2022/03/29 17:39:06;;;;;;;32.95;22.98;;;;;;;8.30;72.00;99368.69;2815269;82;21032;-82
2022/03/29 17:43:07;;;;;;;37.28;24.12;;;;;;;8.18;72.27;99365.30;2800218;82;21061;-81
2022/03/29 17:47:09;;;;;;;31.25;22.80;;;;;;;8.08;72.30;99369.70;2807969;80;21066;-82
2022/03/29 17:51:12;;;;;;;51.02;24.02;;;;;;;8.01;71.97;99365.41;2806241;83;21034;-82
2022/03/29 17:55:14;;;;;;;39.18;22.75;;;;;;;7.94;72.45;99369.56;2806642;82;21020;-81
2022/03/29 17:59:15;;;;;;;33.88;22.93;;;;;;;7.75;72.77;99367.16;2804537;81;21638;-81
2022/03/29 18:03:18;;;;;;;34.65;22.22;;;;;;;7.64;73.06;99364.57;2806202;81;21110;-81
2022/03/29 18:07:21;;;;;;;37.65;24.70;;;;;;;7.56;73.34;99364.75;2786861;82;21013;-81
2022/03/29 18:11:23;;;;;;;38.38;25.40;;;;;;;7.54;73.37;99368.48;2724549;84;21036;-80
2022/03/29 18:15:25;;;;;;;37.10;23.05;;;;;;;7.50;73.04;99373.67;2673561;86;21068;-81
2022/03/29 18:19:27;;;;;;;32.28;22.15;;;;;;;7.44;72.94;99368.41;2713021;86;21535;-80
2022/03/29 18:23:28;;;;;;;29.60;22.25;;;;;;;7.36;72.70;99369.55;2722823;84;21016;-79
2022/03/29 18:27:31;;;;;;;39.00;23.83;;;;;;;7.19;73.80;99365.16;2703445;84;20997;-81
2022/03/29 18:31:32;;;;;;;33.38;22.02;;;;;;;7.06;74.13;99365.34;2691914;86;21103;-81
2022/03/29 18:35:34;;;;;;;34.95;24.15;;;;;;;6.99;74.34;99364.17;2769271;83;21050;-81
2022/03/29 18:39:36;;;;;;;36.25;24.90;;;;;;;6.85;75.57;99354.23;2768165;84;21065;-82
2022/03/29 18:43:39;;;;;;;34.53;23.12;;;;;;;6.84;75.44;99353.87;2810030;82;21030;-82
2022/03/29 18:47:41;;;;;;;47.85;25.00;;;;;;;6.83;75.52;99352.66;2749967;83;21089;-82
2022/03/29 18:51:43;;;;;;;36.42;24.02;;;;;;;6.84;75.71;99358.31;2799028;82;21005;-79
2022/03/29 18:55:46;;;;;;;40.85;25.65;;;;;;;6.84;75.57;99360.48;2797342;82;21007;-80
2022/03/29 18:59:48;;;;;;;37.15;24.67;;;;;;;6.75;75.50;99361.22;2741670;84;21090;-81
2022/03/29 19:03:49;;;;;;;35.73;21.65;;;;;;;6.65;75.47;99369.05;2870192;81;21530;-81
2022/03/29 19:07:51;;;;;;;36.53;23.77;;;;;;;6.50;76.01;99373.76;2841153;81;20999;-81
2022/03/29 19:11:53;;;;;;;40.40;24.32;;;;;;;6.31;76.78;99370.42;2832414;82;20987;-81
2022/03/29 19:15:54;;;;;;;34.98;25.35;;;;;;;6.20;77.96;99367.78;2820596;81;21015;-81
2022/03/29 19:19:56;;;;;;;35.78;24.65;;;;;;;6.12;78.80;99368.37;2849526;81;21043;-81
2022/03/29 19:23:57;;;;;;;37.55;24.70;;;;;;;6.08;79.03;99361.16;2845457;80;20995;-83
2022/03/29 19:27:59;;;;;;;40.55;25.05;;;;;;;6.04;78.82;99361.05;2862262;81;21063;-83
2022/03/29 19:32:02;;;;;;;40.25;26.42;;;;;;;5.98;79.37;99358.86;2864804;80;20999;-84
2022/03/29 19:36:04;;;;;;;31.85;24.00;;;;;;;5.94;79.80;99360.06;2844702;81;21346;-84
2022/03/29 19:40:07;;;;;;;36.45;24.87;;;;;;;5.97;79.54;99355.86;2862280;81;21389;-84
2022/03/29 19:44:09;;;;;;;34.18;25.62;;;;;;;5.98;79.53;99358.86;2875099;81;21126;-84
2022/03/29 19:48:11;;;;;;;42.67;28.12;;;;;;;5.92;79.57;99360.66;2861720;80;21113;-84
2022/03/29 19:52:14;;;;;;;37.33;23.07;;;;;;;5.88;80.02;99359.20;2877895;80;21110;-83
2022/03/29 19:56:15;;;;;;;37.67;24.67;;;;;;;5.83;79.51;99367.00;2835028;81;21090;-85
2022/03/29 20:00:17;;;;;;;34.00;23.95;;;;;;;5.90;79.43;99357.31;2863833;80;21042;-81
2022/03/29 20:04:18;;;;;;;37.90;24.92;;;;;;;5.97;79.26;99354.05;2853123;80;21727;-84
2022/03/29 20:08:20;;;;;;;36.68;26.05;;;;;;;6.05;79.09;99353.98;2910742;80;21133;-84
2022/03/29 20:12:22;;;;;;;42.27;29.52;;;;;;;6.14;78.85;99354.10;2901588;80;21082;-85
2022/03/29 20:16:23;;;;;;;35.80;24.43;;;;;;;6.19;78.72;99344.97;2836549;80;21146;-85
2022/03/29 20:20:25;;;;;;;40.73;25.37;;;;;;;6.23;77.80;99343.77;2833416;81;21101;-84
2022/03/29 20:24:26;;;;;;;42.25;28.07;;;;;;;6.25;76.89;99349.77;2840852;81;21150;-83
2022/03/29 20:28:28;;;;;;;44.35;25.88;;;;;;;6.28;75.97;99344.23;2869973;80;21082;-82